• Join FlightAware (Why Join?)
  • Login
  • US Flag 
02:18PM EST


 

Airport Tracker/Info


-or-


 

Live Flight TrackerFlight Track Log ✈ VH-SKC ✈ 24-May-2013 ✈ YNKA - YBRM / BME

Flight Track Log - Related Links

Times and Time Zones

All times are in EDT time to prevent confusion due to time zone crossing. See the VH-SKC flight status page for this flight to view local times or setup timezone preferences in your user account.

Time Position Orientation Groundspeed Altitude Reporting Facility
EDT Latitude Longitude Course Direction KTS MPH feet Rate Location/Type
04:09AM -18.4666 124.6700 360° North 300  Level Aus ATC (Calculated)
04:09AM -18.4666 124.6700 282° West 100 -720 Descending Aus ATC (Calculated)
04:12AM -18.4455 124.5681 282° West  Level Estimated
04:12AM -18.4350 124.5174 282° West 300  Level Aus ATC (Calculated)
04:13AM -18.4202 124.4457 101° East 100 -300 Descending Aus ATC (Calculated)
04:14AM -18.4218 124.4539 282° West  Level Estimated
04:14AM -18.4058 124.3764 283° West 300  Level Aus ATC (Calculated)
04:15AM -18.4052 124.3734 282° West  Level Estimated
04:16AM -18.3957 124.3280 282° West  Level Estimated
04:17AM -18.3857 124.2804 282° West  Level Estimated
04:18AM -18.3757 124.2328 282° West  Level Estimated
04:19AM -18.3657 124.1852 282° West  Level Estimated
04:19AM -18.3648 124.1789 282° West 100  Level Aus ATC (Calculated)
04:21AM -18.3473 124.0956 282° West  Level Estimated
04:21AM -18.3392 124.0572 283° West 300  Level Aus ATC (Calculated)
04:22AM -18.3372 124.0480 283° West  Level Estimated
04:23AM -18.3290 124.0088 283° West  Level Estimated
04:23AM -18.3273 123.9999 212° Southwest 100  Level Aus ATC (Calculated)
04:23AM -18.3273 123.9999 283° West 300 420 Climbing Aus ATC (Calculated)
04:25AM -18.3120 123.9278 283° West  Level Estimated
04:25AM -18.3042 123.8889 283° West 100  Level Aus ATC (Calculated)
04:26AM -18.2932 123.8371 360° North 100  Level Aus ATC (Calculated)
04:26AM -18.2932 123.8371 283° West 100  Level Aus ATC (Calculated)
04:28AM -18.2758 123.7555 283° West  Level Estimated
04:29AM -18.2657 123.7079 283° West  Level Estimated
04:30AM -18.2556 123.6604 283° West  Level Estimated
04:31AM -18.2454 123.6129 283° West  Level Estimated
04:32AM -18.2353 123.5654 283° West  Level Estimated
04:33AM -18.2251 123.5178 283° West  Level Estimated
04:34AM -18.2149 123.4703 283° West  Level Estimated
04:35AM -18.2047 123.4228 283° West  Level Estimated
04:36AM -18.1945 123.3753 283° West  Level Estimated
04:37AM -18.1842 123.3278 283° West  Level Estimated
04:38AM -18.1740 123.2803 283° West  Level Estimated
04:38AM -18.1647 123.2357 289° West 300  Level Aus ATC (Calculated)
04:39AM -18.1638 123.2329 283° West  Level Estimated
04:40AM -18.1513 123.1740 283° West  Level Estimated
04:41AM -18.1411 123.1265 283° West  Level Estimated
04:42AM -18.1308 123.0790 283° West  Level Estimated
04:43AM -18.1204 123.0316 283° West  Level Estimated
04:44AM -18.1101 122.9841 283° West  Level Estimated
04:45AM -18.0998 122.9367 283° West  Level Estimated
04:46AM -18.0894 122.8893 283° West  Level Estimated
04:46AM -18.0847 122.8574 291° West 100  Level Aus ATC (Calculated)
04:47AM -18.0791 122.8418 283° West  Level Estimated
04:48AM -18.0707 122.7942 283° West  Level Estimated
04:49AM -18.0601 122.7468 283° West  Level Estimated
04:50AM -18.0496 122.6994 283° West  Level Estimated
04:51AM -18.0390 122.6521 283° West  Level Estimated
04:52AM -18.0285 122.6047 283° West  Level Estimated
04:53AM -18.0179 122.5574 283° West  Level Estimated
04:54AM -18.0073 122.5100 283° West  Level Estimated
04:55AM -17.9967 122.4626 283° West  Level Estimated
04:56AM -17.9860 122.4153 283° West  Level Estimated
04:57AM -17.9754 122.3680 283° West  Level Estimated
04:57AM -17.9637 122.3130 283° West 100  Level Aus ATC (Calculated)
04:58AM -17.9550 122.2741 284° West 300 480 Climbing Aus ATC (Calculated)
04:59AM -17.9447 122.2317 284° West  Level Estimated
05:00AM -17.9447 122.2317 235° Southwest  Level Estimated
05:01AM -17.9447 122.2317 235° Southwest  Level Estimated
05:02AM -17.9447 122.2317 235° Southwest  Level Estimated
05:03AM -17.9447 122.2317 235° Southwest  Level Estimated
05:04AM -17.9447 122.2317 235° Southwest  Level Estimated
05:05AM -17.9447 122.2317 235° Southwest  Level Estimated
05:06AM -17.9447 122.2317 235° Southwest  Level Estimated
05:07AM -17.9447 122.2317 235° Southwest  Level Estimated
05:08AM -17.9447 122.2317 235° Southwest  Level Estimated
05:09AM -17.9447 122.2317 235° Southwest  Level Estimated
05:10AM -17.9447 122.2317 235° Southwest  Level Estimated
05:11AM -17.9447 122.2317 235° Southwest  Level Estimated
05:12AM -17.9447 122.2317 235° Southwest  Level Estimated
05:13AM -17.9447 122.2317 235° Southwest  Level Estimated
05:14AM -17.9447 122.2317 235° Southwest  Level Estimated
05:15AM -17.9447 122.2317 235° Southwest  Level Estimated
05:16AM -17.9447 122.2317 235° Southwest  Level Estimated